Lynn, MA

12:00 PM EDT on September 23, 2014 (GMT -0400)
Logan International | Change Station
CLOSE
Current Station
Airport
Location: Boston,
Elevation: 20 ft
Nearby Weather Stations

Elev 20 ft 42.36 °N, 71.01 °W | Updated 6 minutes ago

Clear
Clear
63 °F
Feels Like 63 °F
N
6
Wind Variable Wind from WSW

Today
High -- | Low -- °F
--% Chance of Precip.
Yesterday
High -- | Low -- °F
Precip. -- in
6:32 AM 6:39 PM
Waning Crescent, 0% visible
Pressure 30.27 in
Visibility 10.0 miles
Clouds Few 26000 ft
Dew Point 40 °F
Humidity 43%
Rainfall 0.00 in
Snow Depth Not available.
UV 6 out of 12
Pollen 3.20 out of 12
PM2.5 Good
Flu Activity Not available.
METAR KBOS 231554Z 25005KT 10SM FEW260 17/04 A3027 RMK AO2 SLP250 T01720044

More Conditions Fewer Conditions

Pressure 30.27 in
Visibility 10.0 miles
Clouds Few 26000 ft
Dew Point 40 °F
Humidity 43%
Rainfall 0.00 in
Snow Depth Not available.
UV 6 out of 12
Pollen 3.20 out of 12
PM2.5 Good
Flu Activity Not available.
METAR KBOS 231554Z 25005KT 10SM FEW260 17/04 A3027 RMK AO2 SLP250 T01720044

More Conditions Fewer Conditions

10-Day Weather Forecast

Almanac

Astronomy

Sep. 23, 2014 Rise Set
Actual Time 6:32 AM EDT 6:39 PM EDT
Civil Twilight 6:04 AM EDT 7:07 PM EDT
Nautical Twilight 5:31 AM EDT 7:40 PM EDT
Astronomical Twilight 4:57 AM EDT 8:13 PM EDT
Moon 5:53 AM EDT 6:16 PM EDT
Length of Visible Light 13h 03m
Length of Day
12h 07m
Tomorrow will be 2m 51s shorter.
Waning Crescent, 0% of the Moon is Illuminated
Today
Waning Crescent
Sep 24
New
Oct 1
First Quarter
Oct 8
Full
Oct 15
Last Quarter

Today's Extremes

State Highs State Lows

Community

WunderPhotos

Upload Photos

1,755,737 photos uploaded!

WunderBlogs® & News

Nearby

Air Quality

  Air Quality AQ Index Pollutant
Yesterday Good
OZONE
Yesterday Good
PM2.5
Current Good
PM2.5
Tuesday Good
PM2.5
Tuesday Good
OZONE

Snow Depth

Station Depth Elevation
No new snow has been reported.

Earthquake Activity

City Distance Mag. Time & Date
No recent earthquake activity has been reported nearby.
Minimum magnitude displayed is 2.5.

Coastal Water Temperatures

Place Temperature
Boston, MA 62.1 °F
Providence, RI 66.0 °F
Fall River, MA 69.1 °F
Conimicut Light, RI 66.9 °F

Nearby Weather Stations